Time;durP1;ratioP1;P1;durP2;ratioP2;P2;SDS_P1;SDS_P2;PMS_P1;PMS_P2;Temp;Humidity;BMP_temperature;BMP_pressure;BME280_temperature;BME280_humidity;BME280_pressure;Samples;Min_cycle;Max_cycle;Signal;HPM_P1;HPM_P2
2023/05/11 00:01:51;;;;;;;9.40;3.60;;;;;;;12.86;49.30;100222.97;30855958;28;96676;-70
2023/05/11 00:16:51;;;;;;;5.97;3.47;;;;;;;12.58;49.95;100227.28;30855444;28;97298;-71
2023/05/11 00:31:52;;;;;;;5.55;3.60;;;;;;;12.31;50.24;100230.34;30870501;28;102153;-70
2023/05/11 00:46:52;;;;;;;10.18;4.18;;;;;;;12.05;50.89;100230.75;30874434;28;105549;-70
2023/05/11 01:01:53;;;;;;;9.00;3.88;;;;;;;12.03;50.50;100224.75;30872731;28;97042;-70
2023/05/11 01:16:57;;;;;;;8.38;3.92;;;;;;;12.00;50.95;100233.09;30870883;28;96760;-70
2023/05/11 01:32:04;;;;;;;6.80;4.03;;;;;;;11.95;51.08;100230.16;30869772;28;97078;-71
2023/05/11 01:47:06;;;;;;;7.10;3.93;;;;;;;11.84;51.50;100229.53;30867706;28;96682;-70
2023/05/11 02:02:07;;;;;;;5.80;3.80;;;;;;;11.75;51.87;100235.91;30865402;28;96868;-70
2023/05/11 02:17:09;;;;;;;8.87;4.40;;;;;;;11.65;52.46;100243.34;30865229;28;97221;-70
2023/05/11 02:32:19;;;;;;;9.93;4.20;;;;;;;11.56;53.38;100247.06;30863653;28;97909;-71
2023/05/11 02:47:21;;;;;;;7.90;4.97;;;;;;;11.44;53.01;100243.94;30861349;28;96735;-71
2023/05/11 03:02:21;;;;;;;9.70;5.17;;;;;;;11.24;53.27;100251.53;30859660;28;96957;-71
2023/05/11 03:17:22;;;;;;;11.10;4.95;;;;;;;11.11;54.66;100244.94;30858937;28;105445;-71
2023/05/11 03:32:23;;;;;;;8.60;4.47;;;;;;;10.95;54.02;100255.66;30857765;28;96766;-71
2023/05/11 03:47:26;;;;;;;9.00;5.00;;;;;;;10.77;54.58;100267.34;30856239;28;96690;-70
2023/05/11 04:02:26;;;;;;;7.00;5.00;;;;;;;10.60;55.36;100263.84;30853148;28;96858;-67
2023/05/11 04:17:26;;;;;;;13.15;5.30;;;;;;;10.66;55.48;100265.00;30847030;28;108603;-71
2023/05/11 04:32:28;;;;;;;12.63;5.32;;;;;;;10.83;55.51;100273.81;30850257;28;96723;-73
2023/05/11 04:47:28;;;;;;;10.87;5.03;;;;;;;11.12;55.18;100283.91;30849390;28;97506;-73
2023/05/11 05:02:28;;;;;;;11.30;5.55;;;;;;;11.54;55.27;100276.56;30847679;28;96804;-72
2023/05/11 05:17:29;;;;;;;10.50;5.57;;;;;;;11.96;54.69;100279.84;30859610;28;99810;-73
2023/05/11 05:32:29;;;;;;;9.82;6.18;;;;;;;12.47;53.99;100282.81;30866200;28;97301;-73
2023/05/11 05:47:30;;;;;;;9.13;5.70;;;;;;;13.06;53.36;100297.28;30857906;28;97189;-74
2023/05/11 06:02:30;;;;;;;9.75;5.60;;;;;;;13.75;52.70;100301.50;30860214;28;97039;-74
2023/05/11 06:17:30;;;;;;;7.32;5.13;;;;;;;13.69;52.51;100299.56;30859572;28;107473;-70
2023/05/11 06:32:32;;;;;;;10.75;5.80;;;;;;;14.43;52.36;100311.84;30857661;28;104970;-73
2023/05/11 06:47:33;;;;;;;8.80;5.23;;;;;;;15.42;51.25;100318.16;30858696;28;96805;-70
2023/05/11 07:02:33;;;;;;;15.27;4.78;;;;;;;17.37;48.71;100313.81;30855255;28;97217;-72
2023/05/11 07:17:33;;;;;;;11.57;4.70;;;;;;;19.01;45.12;100312.41;30854386;28;96853;-71
2023/05/11 07:32:34;;;;;;;6.53;4.00;;;;;;;20.26;41.87;100312.97;30855095;28;96677;-71
2023/05/11 07:47:34;;;;;;;9.32;3.97;;;;;;;21.52;39.68;100308.25;30852753;28;97241;-71
2023/05/11 08:02:34;;;;;;;6.33;3.10;;;;;;;22.80;35.88;100309.75;30849817;28;98396;-71
2023/05/11 08:17:36;;;;;;;5.37;2.83;;;;;;;23.97;33.65;100311.53;30850942;28;97514;-70
2023/05/11 08:32:38;;;;;;;6.95;3.33;;;;;;;24.15;31.73;100307.63;30852143;28;97227;-71
2023/05/11 08:47:38;;;;;;;9.23;3.53;;;;;;;25.44;31.17;100308.56;30854216;28;96776;-71
2023/05/11 09:02:39;;;;;;;7.18;3.28;;;;;;;25.02;30.92;100301.22;30869013;28;97268;-72
2023/05/11 09:17:39;;;;;;;6.07;2.75;;;;;;;25.43;30.61;100296.81;30868241;28;97589;-72
2023/05/11 09:32:54;;;;;;;4.88;3.22;;;;;;;25.60;29.83;100296.59;30866351;28;101126;-73
2023/05/11 09:47:55;;;;;;;4.07;2.83;;;;;;;27.06;28.03;100288.19;30864538;28;97669;-70
2023/05/11 10:03:06;;;;;;;9.45;2.83;;;;;;;27.09;26.87;100286.81;30862406;28;97511;-72
2023/05/11 10:18:07;;;;;;;4.90;2.57;;;;;;;26.79;26.89;100272.13;30862949;28;96763;-70
2023/05/11 10:33:09;;;;;;;2.22;1.50;;;;;;;26.10;24.93;100263.44;30834877;28;97557;-70
2023/05/11 10:48:39;;;;;;;6.47;1.97;;;;;;;25.36;23.13;100266.25;30859309;28;96794;-73
2023/05/11 11:03:39;;;;;;;15.50;3.10;;;;;;;25.66;24.29;100240.97;30858329;28;97336;-70
2023/05/11 11:18:39;;;;;;;3.90;1.63;;;;;;;26.43;21.84;100242.91;30853414;28;96993;-71
2023/05/11 11:33:40;;;;;;;3.25;1.70;;;;;;;26.64;21.93;100243.72;30854951;28;96826;-68
2023/05/11 11:48:41;;;;;;;4.43;2.20;;;;;;;28.10;22.04;100231.00;30853148;28;97675;-70
2023/05/11 12:03:43;;;;;;;3.97;1.90;;;;;;;26.34;23.37;100242.66;30850571;28;96720;-73
2023/05/11 12:18:58;;;;;;;4.80;1.97;;;;;;;25.68;24.30;100233.34;30852248;28;96971;-70
2023/05/11 12:33:58;;;;;;;3.33;1.87;;;;;;;25.55;24.27;100224.84;30871470;28;97059;-69
2023/05/11 12:48:59;;;;;;;4.75;2.78;;;;;;;25.09;25.80;100214.59;30869723;28;106246;-70
2023/05/11 13:04:00;;;;;;;6.80;3.40;;;;;;;24.31;27.31;100216.03;30866846;28;97885;-70
2023/05/11 13:19:05;;;;;;;7.05;3.60;;;;;;;23.95;27.82;100207.59;30866504;28;96780;-70
2023/05/11 13:34:05;;;;;;;12.47;3.80;;;;;;;24.28;26.87;100189.34;30862928;28;96821;-71
2023/05/11 13:49:05;;;;;;;8.00;4.05;;;;;;;24.05;27.34;100185.09;30860556;28;116665;-72
2023/05/11 14:04:06;;;;;;;4.20;3.10;;;;;;;24.54;26.79;100165.81;30859896;28;96845;-70
2023/05/11 14:19:07;;;;;;;7.68;3.08;;;;;;;24.30;26.41;100160.78;30861189;28;97024;-72
2023/05/11 14:34:07;;;;;;;8.57;5.17;;;;;;;23.12;27.90;100162.41;30860347;28;97015;-73
2023/05/11 14:49:08;;;;;;;12.38;4.93;;;;;;;22.87;28.17;100157.47;30853922;28;106909;-73
2023/05/11 15:04:08;;;;;;;;;;;;;;;22.95;28.51;100152.44;30854085;28;96772;-72
2023/05/11 15:19:09;;;;;;;11.63;5.97;;;;;;;22.02;29.16;100144.88;30851816;28;97245;-75
2023/05/11 15:34:09;;;;;;;8.70;4.97;;;;;;;22.15;29.09;100132.88;30853491;28;97229;-74
2023/05/11 15:49:09;;;;;;;8.13;2.90;;;;;;;22.64;28.18;100141.16;30854068;28;96705;-74
2023/05/11 16:04:10;;;;;;;7.05;3.92;;;;;;;22.13;28.09;100141.25;30852767;28;110272;-74
2023/05/11 16:19:10;;;;;;;15.15;6.85;;;;;;;21.04;29.91;100151.25;30852107;28;97314;-74
2023/05/11 16:34:11;;;;;;;14.97;5.67;;;;;;;20.63;30.90;100144.97;30848175;28;97292;-76
2023/05/11 16:49:11;;;;;;;11.60;6.27;;;;;;;20.22;31.45;100127.84;30848621;28;97458;-75
2023/05/11 17:04:11;;;;;;;12.25;4.32;;;;;;;19.75;32.05;100134.00;30847257;28;96773;-75
2023/05/11 17:19:12;;;;;;;5.68;2.58;;;;;;;19.22;32.20;100146.44;30864898;28;98338;-74
2023/05/11 17:34:12;;;;;;;5.13;2.25;;;;;;;18.67;33.04;100155.34;30866519;28;96677;-74
2023/05/11 17:49:13;;;;;;;9.40;4.15;;;;;;;18.16;33.76;100160.84;30864014;28;96894;-70
2023/05/11 18:04:14;;;;;;;6.93;2.38;;;;;;;17.68;34.56;100170.31;30864042;28;96711;-75
2023/05/11 18:19:14;;;;;;;5.82;2.65;;;;;;;17.11;34.95;100186.34;30860690;28;96591;-76
2023/05/11 18:34:15;;;;;;;3.13;2.22;;;;;;;16.58;35.16;100203.47;30861470;28;96750;-77
2023/05/11 18:49:15;;;;;;;7.13;2.55;;;;;;;16.10;35.61;100215.25;30858945;28;96729;-67
2023/05/11 19:04:18;;;;;;;3.70;2.00;;;;;;;15.69;35.82;100238.53;30859298;28;96782;-72
2023/05/11 19:19:18;;;;;;;3.77;2.30;;;;;;;15.29;36.92;100245.63;30858055;28;96830;-73
2023/05/11 19:34:19;;;;;;;3.20;2.30;;;;;;;14.86;37.80;100260.88;30857538;28;96746;-73
2023/05/11 19:49:19;;;;;;;7.47;3.17;;;;;;;14.49;38.80;100265.53;30854885;28;97054;-70
2023/05/11 20:04:19;;;;;;;5.50;3.40;;;;;;;14.16;39.78;100260.72;30853298;28;97280;-70
2023/05/11 20:19:20;;;;;;;3.88;2.70;;;;;;;13.84;40.90;100268.22;30853642;28;107229;-72
2023/05/11 20:34:20;;;;;;;7.25;3.17;;;;;;;13.52;41.79;100285.56;30852184;28;96804;-73
2023/05/11 20:49:22;;;;;;;5.28;2.70;;;;;;;13.23;42.66;100286.41;30867563;28;96742;-73
2023/05/11 21:04:22;;;;;;;9.17;3.37;;;;;;;12.95;43.90;100287.88;30873081;28;96665;-75
2023/05/11 21:19:23;;;;;;;4.97;3.17;;;;;;;12.71;44.73;100288.94;30871882;28;103278;-72
2023/05/11 21:34:23;;;;;;;5.40;3.40;;;;;;;12.43;45.31;100292.19;30871193;28;96689;-74
2023/05/11 21:49:24;;;;;;;5.25;3.80;;;;;;;12.21;46.18;100293.06;30869349;28;96727;-75
2023/05/11 22:04:25;;;;;;;6.28;3.42;;;;;;;12.02;46.04;100295.19;30866017;28;96871;-75
2023/05/11 22:19:26;;;;;;;5.13;3.33;;;;;;;11.85;46.84;100305.94;30866519;28;97045;-74
2023/05/11 22:34:26;;;;;;;8.52;3.63;;;;;;;11.72;47.48;100316.34;30864656;28;97297;-75
2023/05/11 22:49:27;;;;;;;6.30;3.17;;;;;;;11.51;47.80;100319.63;30863460;28;96799;-75
2023/05/11 23:04:28;;;;;;;9.33;3.80;;;;;;;11.35;48.87;100316.00;30861669;28;97336;-74
2023/05/11 23:19:28;;;;;;;4.95;3.15;;;;;;;11.20;48.72;100320.38;30860462;28;97432;-71
2023/05/11 23:34:29;;;;;;;8.35;3.80;;;;;;;11.00;49.05;100322.59;30859126;28;103997;-72
2023/05/11 23:49:29;;;;;;;8.35;4.40;;;;;;;10.81;50.07;100316.63;30858366;28;96727;-73
